EBAW

EBAW 252120Z AUTO VRB01KT CAVOK 21/14 Q1019

TAF TAF EBAW 251700Z 2518/2606 11007KT CAVOK PROB30 TEMPO 2518/2520 VRB15G30KT 3500 SHRA TSRA

EHWO

EHWO 252125Z AUTO 07003KT 9999 NCD 20/15 Q1019 BLU

TAF EHWO 230818Z 2309/2321 VRB03KT CAVOK

EBBL

EBBL 252055Z AUTO VRB01KT 9999 NCD 19/15 Q1019 BLU

TAF EBBL 221541Z 2219/2307 27004KT 9999 SKC

Always consult the official METAR resources.